Time;durP1;ratioP1;P1;durP2;ratioP2;P2;SDS_P1;SDS_P2;PMS_P1;PMS_P2;Temp;Humidity;BMP_temperature;BMP_pressure;BME280_temperature;BME280_humidity;BME280_pressure;Samples;Min_cycle;Max_cycle;Signal;HPM_P1;HPM_P2
2022/01/01 00:00:27;;;;;;;139.65;79.85;;;;;;;9.34;66.72;100184.00;4365406;32;32706;-84
2022/01/01 00:02:56;;;;;;;94.87;58.05;;;;;;;9.35;67.21;100177.47;4365463;32;33478;-86
2022/01/01 00:05:24;;;;;;;59.33;39.03;;;;;;;9.35;67.37;100182.97;4350038;32;35286;-85
2022/01/01 00:08:12;;;;;;;70.85;43.63;;;;;;;9.47;66.77;100180.59;4362607;32;35185;-84
2022/01/01 00:10:42;;;;;;;43.25;27.30;;;;;;;9.55;66.10;100181.34;4363356;32;33752;-85
2022/01/01 00:13:18;;;;;;;42.80;28.40;;;;;;;9.40;66.00;100177.75;4358411;32;33269;-85
2022/01/01 00:15:53;;;;;;;53.70;34.65;;;;;;;9.40;65.42;100172.28;4390530;32;33492;-84
2022/01/01 00:19:06;;;;;;;65.20;41.37;;;;;;;9.35;65.29;100174.75;4307504;33;33901;-81
2022/01/01 00:21:38;;;;;;;61.33;38.17;;;;;;;9.27;65.08;100171.25;4320321;33;34304;-81
2022/01/01 00:24:06;;;;;;;63.17;41.10;;;;;;;9.05;65.62;100173.91;4320451;33;33775;-81
2022/01/01 00:26:33;;;;;;;63.78;39.58;;;;;;;9.13;65.30;100161.97;4305175;33;34859;-80
2022/01/01 00:29:02;;;;;;;54.63;36.05;;;;;;;8.93;65.54;100163.59;4313577;33;34103;-79
2022/01/01 00:31:30;;;;;;;52.05;34.13;;;;;;;9.11;64.79;100161.31;4319934;33;33735;-79
2022/01/01 00:33:59;;;;;;;70.20;41.60;;;;;;;8.91;65.08;100153.69;4326589;33;34511;-80
2022/01/01 00:36:31;;;;;;;72.12;44.33;;;;;;;9.47;79.12;100145.81;4343162;32;34724;-81
2022/01/01 00:38:59;;;;;;;75.87;47.72;;;;;;;9.47;73.10;100132.13;4392691;32;33852;-81
2022/01/01 00:41:26;;;;;;;73.75;48.30;;;;;;;9.40;70.56;100157.72;4367195;32;33763;-81
2022/01/01 00:43:54;;;;;;;72.68;47.55;;;;;;;9.40;68.29;100144.88;4367530;32;34589;-82
2022/01/01 00:46:22;;;;;;;79.35;48.60;;;;;;;9.18;66.63;100148.56;4380711;32;34475;-83
2022/01/01 00:48:53;;;;;;;83.22;48.00;;;;;;;9.19;65.76;100150.28;4362333;32;34807;-83
2022/01/01 00:51:26;;;;;;;80.93;50.33;;;;;;;9.08;65.43;100151.63;4365937;32;34376;-84
2022/01/01 00:53:54;;;;;;;74.47;46.80;;;;;;;9.07;64.92;100151.81;4351680;32;34480;-82
2022/01/01 00:56:21;;;;;;;70.00;41.55;;;;;;;9.05;64.71;100156.63;4352587;32;34627;-81
2022/01/01 00:58:49;;;;;;;71.20;44.70;;;;;;;8.99;64.49;100147.28;4365906;32;34539;-82
2022/01/01 01:01:20;;;;;;;76.50;42.35;;;;;;;8.81;64.75;100153.09;4352091;32;33614;-82
2022/01/01 01:03:48;;;;;;;66.32;43.55;;;;;;;8.65;65.11;100157.88;4363968;32;33876;-82
2022/01/01 01:06:15;;;;;;;76.00;46.40;;;;;;;8.84;64.45;100171.88;4366026;32;34183;-82
2022/01/01 01:08:43;;;;;;;77.35;45.30;;;;;;;8.63;64.60;100160.78;4368409;32;34746;-82
2022/01/01 01:11:13;;;;;;;69.05;44.65;;;;;;;8.61;64.91;100171.06;4355170;32;32781;-82
2022/01/01 01:13:44;;;;;;;68.05;42.42;;;;;;;8.64;64.78;100175.31;4374005;32;33364;-81
2022/01/01 01:16:12;;;;;;;69.35;41.20;;;;;;;8.73;64.40;100168.75;4353115;32;34308;-82
2022/01/01 01:18:43;;;;;;;84.82;45.65;;;;;;;8.57;64.70;100159.63;4341491;32;33471;-81
2022/01/01 01:21:12;;;;;;;88.68;49.25;;;;;;;8.40;65.10;100179.13;4358125;32;33180;-85
2022/01/01 01:23:43;;;;;;;82.15;47.45;;;;;;;8.27;65.77;100175.09;4365857;32;34304;-82
2022/01/01 01:26:11;;;;;;;77.47;44.15;;;;;;;8.42;65.26;100169.72;4357732;32;35067;-82
2022/01/01 01:28:45;;;;;;;75.07;44.85;;;;;;;8.37;65.32;100163.09;4372448;32;34034;-81
2022/01/01 01:31:13;;;;;;;66.70;40.15;;;;;;;8.35;65.60;100170.62;4356802;32;33749;-81
2022/01/01 01:33:44;;;;;;;73.00;40.78;;;;;;;8.48;65.11;100165.38;4371646;32;33906;-81
2022/01/01 01:36:12;;;;;;;64.37;39.95;;;;;;;8.34;65.61;100169.78;4358234;32;32081;-80
2022/01/01 01:38:40;;;;;;;68.57;41.13;;;;;;;8.38;65.48;100178.47;4358926;32;34433;-80
2022/01/01 01:41:09;;;;;;;60.35;36.17;;;;;;;8.36;67.57;100186.00;4359661;32;33557;-80
2022/01/01 01:43:37;;;;;;;51.53;30.85;;;;;;;8.36;66.52;100178.66;4371070;32;33787;-81
2022/01/01 01:46:06;;;;;;;48.00;27.60;;;;;;;8.46;65.98;100175.63;4370577;32;34613;-80
2022/01/01 01:48:38;;;;;;;42.70;25.58;;;;;;;8.26;66.63;100167.91;4370922;32;34875;-80
2022/01/01 01:51:06;;;;;;;43.67;26.92;;;;;;;8.33;67.00;100153.56;4355028;32;32871;-81
2022/01/01 01:53:34;;;;;;;45.72;27.15;;;;;;;8.30;66.96;100162.09;4357719;32;33926;-80
2022/01/01 01:56:04;;;;;;;44.38;27.55;;;;;;;8.42;66.37;100166.13;4369770;32;35092;-81
2022/01/01 01:58:33;;;;;;;45.88;27.10;;;;;;;8.32;66.46;100169.06;4371793;32;31713;-82
2022/01/01 02:03:54;;;;;;;42.25;25.83;;;;;;;8.33;66.31;100170.81;4373575;32;34449;-83
2022/01/01 02:06:23;;;;;;;40.25;23.62;;;;;;;8.45;65.80;100171.22;4375773;32;35607;-78
2022/01/01 02:08:53;;;;;;;41.00;25.37;;;;;;;8.46;65.83;100173.75;4378690;32;33799;-79
2022/01/01 02:11:22;;;;;;;41.08;24.10;;;;;;;8.42;66.00;100166.13;4378170;32;34090;-79
2022/01/01 02:18:51;;;;;;;29.65;17.52;;;;;;;8.39;66.49;100166.50;4377222;32;33775;-80
2022/01/01 02:21:20;;;;;;;30.52;17.10;;;;;;;8.32;66.75;100180.00;4365376;32;33612;-81
2022/01/01 02:23:49;;;;;;;31.05;17.37;;;;;;;8.39;66.39;100181.03;4378005;32;34269;-81
2022/01/01 02:26:16;;;;;;;29.35;17.85;;;;;;;8.33;66.91;100184.47;4365064;32;34315;-81
2022/01/01 02:28:47;;;;;;;29.48;17.30;;;;;;;8.40;66.62;100177.25;4365398;32;34312;-80
2022/01/01 02:31:15;;;;;;;27.58;17.17;;;;;;;8.41;66.65;100189.03;4390107;32;32358;-84
2022/01/01 02:33:44;;;;;;;28.12;16.00;;;;;;;8.49;66.29;100180.75;4390428;32;34366;-80
2022/01/01 02:36:11;;;;;;;24.33;15.07;;;;;;;8.42;66.60;100191.59;4373680;32;35264;-80
2022/01/01 02:38:39;;;;;;;22.17;13.25;;;;;;;8.40;66.63;100180.00;4363684;32;32653;-79
2022/01/01 02:41:07;;;;;;;20.98;12.82;;;;;;;8.38;67.07;100175.72;4364896;32;34077;-84
2022/01/01 02:43:44;;;;;;;25.62;14.20;;;;;;;8.36;67.73;100181.38;4375612;32;33518;-81
2022/01/01 02:46:12;;;;;;;24.17;13.90;;;;;;;8.46;67.65;100171.03;4365344;32;34879;-81
2022/01/01 02:48:39;;;;;;;18.83;10.63;;;;;;;8.42;69.11;100171.59;4364793;32;34180;-80
2022/01/01 02:51:08;;;;;;;18.25;9.63;;;;;;;8.67;68.92;100174.94;4377019;32;33785;-81
2022/01/01 02:53:35;;;;;;;18.15;10.75;;;;;;;8.68;71.58;100161.09;4367944;32;32112;-81
2022/01/01 02:56:03;;;;;;;18.33;9.75;;;;;;;8.78;72.97;100167.16;4364731;32;33108;-80
2022/01/01 02:58:30;;;;;;;17.17;9.88;;;;;;;8.94;72.83;100154.34;4364629;32;34058;-80
2022/01/01 03:00:58;;;;;;;15.02;8.80;;;;;;;9.19;72.88;100158.50;4365561;32;34154;-81
2022/01/01 03:03:26;;;;;;;13.88;8.07;;;;;;;9.09;75.19;100164.28;4365873;32;33370;-83
2022/01/01 03:05:53;;;;;;;15.82;8.00;;;;;;;9.25;75.78;100166.81;4363941;32;33942;-81
2022/01/01 03:08:21;;;;;;;14.15;7.15;;;;;;;9.62;74.62;100154.03;4378271;32;34849;-81
2022/01/01 03:10:49;;;;;;;16.70;7.85;;;;;;;9.68;75.44;100163.38;4365725;32;33305;-81
2022/01/01 03:13:17;;;;;;;13.20;7.53;;;;;;;9.89;74.96;100166.16;4365474;32;33449;-81
2022/01/01 03:15:45;;;;;;;14.45;7.10;;;;;;;10.06;74.52;100175.84;4376222;32;34624;-84
2022/01/01 03:18:13;;;;;;;12.40;6.35;;;;;;;10.36;73.74;100167.53;4359937;32;34402;-81
2022/01/01 03:20:41;;;;;;;14.07;6.90;;;;;;;10.44;73.24;100173.72;4363703;32;34102;-82
2022/01/01 03:23:08;;;;;;;11.25;6.35;;;;;;;10.54;72.92;100179.72;4363773;32;33313;-82
2022/01/01 03:25:36;;;;;;;12.27;6.70;;;;;;;10.71;71.97;100183.06;4363411;32;33390;-81
2022/01/01 03:28:04;;;;;;;11.12;6.28;;;;;;;10.59;72.33;100184.62;4363491;32;33979;-80
2022/01/01 03:30:32;;;;;;;13.77;6.50;;;;;;;10.70;72.12;100181.34;4365661;32;33235;-82
2022/01/01 03:33:00;;;;;;;11.90;6.40;;;;;;;10.65;72.21;100191.22;4359250;32;34050;-80
2022/01/01 03:35:28;;;;;;;10.82;6.22;;;;;;;11.02;71.09;100187.31;4352611;32;33762;-81
2022/01/01 03:37:56;;;;;;;11.32;6.20;;;;;;;10.97;70.99;100187.91;4365064;32;32819;-81
2022/01/01 03:40:23;;;;;;;12.25;6.35;;;;;;;10.64;72.03;100178.53;4365442;32;33805;-80
2022/01/01 03:42:51;;;;;;;14.13;7.05;;;;;;;11.04;70.72;100187.97;4365384;32;34496;-80
2022/01/01 03:45:19;;;;;;;13.68;6.85;;;;;;;11.08;70.48;100201.06;4365696;32;35231;-81
2022/01/01 03:47:46;;;;;;;14.25;7.25;;;;;;;11.24;69.83;100205.41;4365541;32;34709;-81
2022/01/01 03:50:14;;;;;;;14.02;7.03;;;;;;;11.14;70.00;100207.66;4363486;32;33958;-80
2022/01/01 03:52:43;;;;;;;13.50;6.90;;;;;;;11.10;70.06;100200.88;4353334;32;33814;-80
2022/01/01 03:55:12;;;;;;;13.02;7.10;;;;;;;11.29;69.60;100193.84;4365318;32;34083;-81
2022/01/01 03:57:40;;;;;;;14.23;7.30;;;;;;;11.28;69.31;100187.50;4377931;32;33471;-81
2022/01/01 04:00:13;;;;;;;13.40;7.05;;;;;;;11.24;69.56;100199.94;4365406;32;33077;-81
2022/01/01 04:02:40;;;;;;;15.88;7.30;;;;;;;11.48;68.71;100202.22;4378209;32;34131;-82
2022/01/01 04:05:09;;;;;;;11.73;6.57;;;;;;;11.34;69.20;100203.16;4365217;32;34981;-81
2022/01/01 04:07:36;;;;;;;12.60;6.32;;;;;;;11.17;69.72;100210.88;4377661;32;33100;-81
2022/01/01 04:10:04;;;;;;;12.30;6.60;;;;;;;10.97;71.02;100203.56;4365449;32;33239;-81
2022/01/01 04:12:32;;;;;;;12.57;7.00;;;;;;;11.09;70.70;100207.41;4377612;32;34674;-80
2022/01/01 04:15:01;;;;;;;12.40;6.25;;;;;;;11.33;69.66;100215.22;4365143;32;34504;-80
2022/01/01 04:17:35;;;;;;;14.48;6.87;;;;;;;11.25;69.75;100226.34;4365170;32;34668;-80
2022/01/01 04:20:04;;;;;;;14.50;6.65;;;;;;;11.38;69.51;100229.19;4365983;32;33636;-80
2022/01/01 04:22:32;;;;;;;12.07;6.45;;;;;;;11.42;69.53;100225.00;4377079;32;33832;-81
2022/01/01 04:24:59;;;;;;;12.05;6.03;;;;;;;11.27;69.70;100237.16;4364826;32;34590;-81
2022/01/01 04:27:27;;;;;;;12.13;5.55;;;;;;;11.71;68.25;100228.53;4364999;32;34370;-81
2022/01/01 04:29:55;;;;;;;11.18;6.05;;;;;;;11.80;67.42;100233.69;4365107;32;33398;-80
2022/01/01 04:32:22;;;;;;;10.95;5.75;;;;;;;11.64;68.22;100242.28;4364582;32;33400;-80
2022/01/01 04:34:50;;;;;;;11.57;5.93;;;;;;;11.34;69.23;100238.91;4377166;32;34164;-81
2022/01/01 04:37:19;;;;;;;10.32;5.70;;;;;;;11.51;68.49;100229.28;4352428;32;33765;-80
2022/01/01 04:39:51;;;;;;;10.85;5.50;;;;;;;11.80;67.81;100238.34;4364997;32;33237;-80
2022/01/01 04:42:18;;;;;;;11.77;5.65;;;;;;;11.73;67.93;100238.28;4362258;32;33350;-80
2022/01/01 04:44:46;;;;;;;11.48;5.57;;;;;;;11.41;68.92;100237.03;4364743;32;34364;-82
2022/01/01 04:47:13;;;;;;;10.05;5.68;;;;;;;11.40;68.79;100223.50;4362964;32;34774;-80
2022/01/01 04:49:41;;;;;;;10.82;5.57;;;;;;;11.68;68.16;100235.31;4358711;32;32743;-80
2022/01/01 04:52:09;;;;;;;8.25;4.70;;;;;;;11.70;68.32;100243.38;4364919;32;33807;-81
2022/01/01 04:54:40;;;;;;;8.20;4.62;;;;;;;11.07;70.10;100243.31;4352301;32;33037;-80
2022/01/01 04:57:08;;;;;;;9.52;4.32;;;;;;;11.21;70.16;100236.91;4377128;32;34826;-80
2022/01/01 04:59:37;;;;;;;9.13;4.25;;;;;;;11.26;70.11;100236.28;4364436;32;34016;-80
2022/01/01 05:02:04;;;;;;;8.70;4.85;;;;;;;11.55;69.09;100246.22;4377717;32;34351;-79
2022/01/01 05:04:33;;;;;;;9.75;4.53;;;;;;;11.41;69.43;100238.94;4367098;32;35298;-80
2022/01/01 05:07:00;;;;;;;8.35;4.22;;;;;;;11.25;70.30;100231.00;4378474;32;33568;-80
2022/01/01 05:09:29;;;;;;;6.68;4.03;;;;;;;11.50;69.39;100227.59;4366674;32;33484;-81
2022/01/01 05:11:57;;;;;;;9.57;4.18;;;;;;;11.50;69.38;100222.09;4366614;32;34562;-81
2022/01/01 05:14:25;;;;;;;9.07;4.05;;;;;;;11.72;68.56;100221.97;4366326;32;33653;-80
2022/01/01 05:16:53;;;;;;;9.27;4.10;;;;;;;11.31;69.77;100224.72;4353935;32;31524;-79
2022/01/01 05:19:23;;;;;;;8.05;4.25;;;;;;;11.74;68.83;100217.97;4366192;32;32707;-80
2022/01/01 05:21:55;;;;;;;7.72;3.85;;;;;;;11.83;68.32;100222.28;4366064;32;33001;-80
2022/01/01 05:24:23;;;;;;;7.72;3.85;;;;;;;11.67;68.79;100227.28;4366117;32;34655;-80
2022/01/01 05:26:51;;;;;;;8.52;4.20;;;;;;;11.68;69.06;100229.81;4378567;32;33610;-81
2022/01/01 05:29:18;;;;;;;7.93;3.95;;;;;;;11.86;68.07;100234.78;4366361;32;33467;-81
2022/01/01 05:31:46;;;;;;;7.35;3.72;;;;;;;11.75;68.20;100221.56;4354046;32;33094;-81
2022/01/01 05:34:14;;;;;;;7.15;3.83;;;;;;;11.92;67.82;100233.13;4364712;32;34314;-80
2022/01/01 05:36:41;;;;;;;7.45;3.78;;;;;;;11.73;68.69;100215.44;4366315;32;33631;-80
2022/01/01 05:39:09;;;;;;;8.63;3.60;;;;;;;11.51;69.33;100223.78;4366117;32;34029;-81
2022/01/01 05:41:37;;;;;;;8.48;4.30;;;;;;;11.55;69.64;100213.25;4366222;32;33534;-81
2022/01/01 05:44:05;;;;;;;6.60;3.20;;;;;;;11.79;68.57;100222.91;4366546;32;34934;-79
2022/01/01 05:46:32;;;;;;;9.63;3.67;;;;;;;11.81;69.21;100229.88;4365728;32;33155;-80
2022/01/01 05:49:00;;;;;;;8.73;3.80;;;;;;;11.73;68.94;100227.28;4365889;32;32301;-82
2022/01/01 05:51:28;;;;;;;7.22;3.47;;;;;;;12.15;67.72;100226.25;4366429;32;34050;-81
2022/01/01 05:53:56;;;;;;;5.85;3.12;;;;;;;11.72;68.78;100228.31;4366234;32;34946;-81
2022/01/01 05:56:23;;;;;;;7.90;2.87;;;;;;;11.84;68.78;100237.72;4366050;32;34658;-80
2022/01/01 05:58:51;;;;;;;7.10;3.33;;;;;;;11.78;68.73;100246.78;4366037;32;32832;-80
2022/01/01 06:01:18;;;;;;;9.63;3.53;;;;;;;11.95;68.09;100250.06;4365774;32;34004;-81
2022/01/01 06:03:47;;;;;;;7.72;3.65;;;;;;;11.71;68.80;100253.28;4366136;32;34022;-82
2022/01/01 06:06:15;;;;;;;10.02;3.83;;;;;;;12.18;67.32;100266.25;4364140;32;34649;-80
2022/01/01 06:08:59;;;;;;;9.45;3.97;;;;;;;12.22;67.49;100258.44;4366180;32;32843;-83
2022/01/01 06:11:26;;;;;;;8.00;3.90;;;;;;;11.94;67.86;100251.13;4378349;32;33871;-83
2022/01/01 06:13:54;;;;;;;7.78;3.87;;;;;;;11.84;68.27;100279.00;4364269;32;34049;-81
2022/01/01 06:16:22;;;;;;;6.62;3.60;;;;;;;12.13;67.84;100272.38;4365980;32;33344;-84
2022/01/01 06:18:49;;;;;;;9.65;3.53;;;;;;;11.95;68.10;100280.31;4364619;32;33340;-81
2022/01/01 06:21:17;;;;;;;8.18;3.80;;;;;;;12.09;67.52;100278.50;4365999;32;33726;-81
2022/01/01 06:23:45;;;;;;;7.00;3.35;;;;;;;12.30;67.10;100277.53;4366449;32;34834;-82
2022/01/01 06:26:13;;;;;;;8.10;3.90;;;;;;;12.33;66.79;100282.62;4353533;32;33879;-81
2022/01/01 06:28:40;;;;;;;6.45;3.30;;;;;;;12.27;67.42;100283.44;4366114;32;34418;-81
2022/01/01 06:31:08;;;;;;;9.38;3.83;;;;;;;12.04;67.63;100297.50;4353506;32;32116;-80
2022/01/01 06:33:35;;;;;;;7.68;3.70;;;;;;;12.15;67.75;100285.94;4378291;32;33855;-84
2022/01/01 06:36:03;;;;;;;7.78;3.60;;;;;;;12.32;67.10;100303.78;4365983;32;33291;-82
2022/01/01 06:38:31;;;;;;;8.68;3.97;;;;;;;12.00;67.81;100297.06;4353304;32;32562;-81
2022/01/01 06:40:58;;;;;;;7.93;3.58;;;;;;;12.26;67.12;100309.25;4366003;32;33676;-82
2022/01/01 06:43:26;;;;;;;6.45;3.40;;;;;;;12.43;66.76;100307.81;4366256;32;35159;-81
2022/01/01 06:45:54;;;;;;;8.55;3.92;;;;;;;12.47;66.53;100304.47;4364075;32;34202;-81
2022/01/01 06:48:21;;;;;;;6.95;3.60;;;;;;;12.26;67.32;100301.84;4365915;32;32834;-81
2022/01/01 06:50:50;;;;;;;8.55;3.60;;;;;;;12.14;67.56;100312.59;4365712;32;32823;-82
2022/01/01 06:53:18;;;;;;;6.97;3.10;;;;;;;12.48;66.62;100316.31;4353592;32;33334;-81
2022/01/01 06:55:45;;;;;;;9.38;3.50;;;;;;;12.79;65.67;100313.88;4365911;32;33935;-82
2022/01/01 06:58:13;;;;;;;7.53;3.20;;;;;;;12.69;65.94;100321.69;4366096;32;33319;-81
2022/01/01 07:00:41;;;;;;;8.93;3.87;;;;;;;12.16;67.31;100313.25;4365408;32;33478;-81
2022/01/01 07:03:09;;;;;;;7.25;3.47;;;;;;;12.66;65.83;100324.84;4353207;32;32637;-82
2022/01/01 07:05:37;;;;;;;10.70;4.32;;;;;;;12.59;66.57;100326.75;4365545;32;33909;-82
2022/01/01 07:08:05;;;;;;;7.50;3.28;;;;;;;12.64;66.07;100324.22;4365930;32;32754;-80
2022/01/01 07:10:32;;;;;;;5.97;3.42;;;;;;;12.65;66.17;100334.19;4365872;32;33732;-80
2022/01/01 07:13:02;;;;;;;24.45;9.70;;;;;;;12.15;67.45;100343.72;4365677;32;34893;-81
2022/01/01 07:15:31;;;;;;;8.25;3.92;;;;;;;12.30;67.31;100338.06;4365786;32;33952;-83
2022/01/01 07:17:58;;;;;;;6.87;3.37;;;;;;;12.10;67.92;100349.81;4369157;32;33199;-82
2022/01/01 07:20:26;;;;;;;8.38;3.12;;;;;;;12.68;66.32;100349.44;4365658;32;34493;-81
2022/01/01 07:22:55;;;;;;;13.13;5.28;;;;;;;12.58;65.86;100351.72;4363304;32;34648;-82
2022/01/01 07:25:28;;;;;;;9.55;3.72;;;;;;;12.73;67.04;100366.19;4364235;32;32524;-82
2022/01/01 07:27:56;;;;;;;8.25;3.55;;;;;;;12.69;65.83;100368.50;4365460;32;33644;-81
2022/01/01 07:30:24;;;;;;;6.60;3.60;;;;;;;13.02;64.66;100373.25;4365938;32;34214;-81
2022/01/01 07:32:54;;;;;;;7.32;3.45;;;;;;;13.14;64.07;100374.34;4365586;32;33692;-82
2022/01/01 07:35:23;;;;;;;8.32;4.05;;;;;;;13.12;63.97;100379.22;4365704;32;34357;-81
2022/01/01 07:37:52;;;;;;;7.95;3.60;;;;;;;12.85;64.33;100373.66;4365316;32;34258;-81
2022/01/01 07:40:20;;;;;;;11.05;4.30;;;;;;;12.95;64.04;100388.94;4365582;32;34261;-80
2022/01/01 07:42:48;;;;;;;7.50;3.58;;;;;;;13.03;63.88;100394.25;4365279;32;33069;-81
2022/01/01 07:45:16;;;;;;;8.23;3.70;;;;;;;12.60;64.84;100388.16;4365723;32;33825;-81
2022/01/01 07:47:44;;;;;;;7.87;3.60;;;;;;;12.70;64.90;100400.50;4365421;32;33441;-80
2022/01/01 07:50:12;;;;;;;9.32;3.70;;;;;;;12.86;64.21;100394.62;4377991;32;34206;-81
2022/01/01 07:52:43;;;;;;;6.65;3.75;;;;;;;12.85;64.44;100403.09;4353063;32;33777;-81
2022/01/01 07:55:10;;;;;;;9.07;4.15;;;;;;;12.94;64.10;100403.78;4377389;32;34800;-81
2022/01/01 07:57:38;;;;;;;7.60;3.25;;;;;;;12.84;64.53;100405.00;4365715;32;33647;-81
2022/01/01 08:00:08;;;;;;;8.48;3.70;;;;;;;12.77;64.78;100415.16;4359972;32;32253;-82
2022/01/01 08:02:44;;;;;;;5.93;2.90;;;;;;;12.73;65.59;100407.50;4376674;32;34158;-82
2022/01/01 08:05:18;;;;;;;7.53;3.33;;;;;;;12.55;65.85;100413.56;4376577;32;33736;-81
2022/01/01 08:07:47;;;;;;;8.52;3.53;;;;;;;12.49;66.08;100415.22;4352720;32;31691;-86
2022/01/01 08:10:31;;;;;;;7.97;3.62;;;;;;;12.52;66.45;100417.56;4369942;32;34135;-80
2022/01/01 08:12:59;;;;;;;7.82;3.53;;;;;;;12.88;67.11;100415.63;4376230;32;32804;-81
2022/01/01 08:15:29;;;;;;;8.77;3.58;;;;;;;12.88;66.17;100429.41;4364813;32;33947;-80
2022/01/01 08:17:56;;;;;;;8.82;3.90;;;;;;;12.98;65.74;100435.38;4375155;32;34317;-82
2022/01/01 08:20:38;;;;;;;6.68;3.50;;;;;;;13.30;65.29;100431.88;4365500;32;34746;-81
2022/01/01 08:23:08;;;;;;;7.97;3.65;;;;;;;13.37;64.19;100441.00;4368561;32;35203;-80
2022/01/01 08:25:36;;;;;;;9.45;4.65;;;;;;;13.30;64.38;100439.28;4362850;32;34065;-81
2022/01/01 08:28:05;;;;;;;20.85;10.73;;;;;;;13.20;64.56;100442.44;4364035;32;34056;-81
2022/01/01 08:30:33;;;;;;;12.37;5.90;;;;;;;13.15;64.23;100448.53;4376422;32;33635;-81
2022/01/01 08:33:04;;;;;;;10.32;4.32;;;;;;;13.01;64.78;100456.97;4362998;32;32876;-80
2022/01/01 08:35:33;;;;;;;12.45;5.53;;;;;;;12.99;65.17;100453.59;4364596;32;33608;-77
2022/01/01 08:38:04;;;;;;;7.57;3.90;;;;;;;13.22;65.88;100448.59;4379068;32;32136;-81
2022/01/01 08:40:33;;;;;;;8.18;3.70;;;;;;;13.19;65.02;100446.25;4379457;32;33430;-81
2022/01/01 08:43:01;;;;;;;7.00;3.83;;;;;;;13.29;64.62;100449.47;4378969;32;35232;-77
2022/01/01 08:45:37;;;;;;;7.30;3.25;;;;;;;13.33;64.65;100447.16;4379538;32;32887;-78
2022/01/01 08:48:06;;;;;;;9.00;3.72;;;;;;;13.32;64.63;100449.06;4364625;32;32424;-83
2022/01/01 08:50:34;;;;;;;12.35;6.12;;;;;;;13.71;66.81;100444.66;4377155;32;33587;-82
2022/01/01 08:53:01;;;;;;;43.22;21.25;;;;;;;13.39;65.01;100447.16;4365560;32;34447;-81
2022/01/01 08:55:29;;;;;;;8.02;3.90;;;;;;;13.29;65.37;100460.50;4366918;32;34052;-83
2022/01/01 08:57:57;;;;;;;12.10;6.03;;;;;;;13.72;64.10;100465.66;4366860;32;33086;-82
2022/01/01 09:00:45;;;;;;;7.47;3.62;;;;;;;13.58;64.52;100464.81;4357200;32;33275;-81
2022/01/01 09:03:13;;;;;;;7.72;3.62;;;;;;;13.77;64.25;100468.63;4366032;32;34440;-81
2022/01/01 09:05:42;;;;;;;6.75;3.45;;;;;;;13.94;63.82;100474.59;4363931;32;95791;-79
2022/01/01 09:08:36;;;;;;;7.60;3.85;;;;;;;13.99;63.64;100470.13;4361761;32;33910;-83
2022/01/01 09:11:12;;;;;;;5.75;3.10;;;;;;;14.05;63.23;100477.56;4361132;32;34224;-82
2022/01/01 09:13:43;;;;;;;8.80;3.90;;;;;;;14.10;62.76;100475.03;4363518;32;34173;-82
2022/01/01 09:16:16;;;;;;;6.53;3.08;;;;;;;14.27;62.70;100486.47;4373054;32;33627;-81
2022/01/01 09:18:46;;;;;;;7.22;3.70;;;;;;;14.06;62.95;100478.41;4389787;32;33467;-81
2022/01/01 09:21:15;;;;;;;7.60;3.58;;;;;;;14.12;62.58;100478.41;4392590;32;33663;-81
2022/01/01 09:23:43;;;;;;;6.93;3.10;;;;;;;14.24;62.52;100477.78;4370126;32;35402;-82
2022/01/01 09:26:11;;;;;;;6.90;3.20;;;;;;;14.24;62.37;100475.88;4394622;32;33620;-81
2022/01/01 09:28:39;;;;;;;10.85;5.60;;;;;;;14.31;62.57;100484.13;4381911;32;33760;-82
2022/01/01 09:31:06;;;;;;;27.70;15.75;;;;;;;14.26;62.52;100478.41;4380781;32;34032;-82
2022/01/01 09:33:37;;;;;;;21.95;10.63;;;;;;;14.62;62.24;100484.31;4368170;32;33160;-82
2022/01/01 09:36:06;;;;;;;16.95;8.13;;;;;;;14.73;61.91;100483.66;4380292;32;34128;-83
2022/01/01 09:38:37;;;;;;;10.10;5.15;;;;;;;14.89;60.91;100479.56;4378804;32;33266;-80
2022/01/01 09:41:09;;;;;;;21.42;11.82;;;;;;;15.02;60.98;100481.41;4378717;32;33266;-79
2022/01/01 09:43:36;;;;;;;17.58;10.85;;;;;;;15.81;73.47;100484.59;4379984;32;34181;-81
2022/01/01 09:46:05;;;;;;;7.20;3.92;;;;;;;16.37;75.61;100478.16;4381573;32;35110;-82
2022/01/01 09:48:35;;;;;;;6.32;3.17;;;;;;;16.03;61.61;100478.69;4381572;32;34297;-83
2022/01/01 09:51:03;;;;;;;7.40;3.50;;;;;;;15.78;58.56;100489.75;4382202;32;31858;-82
2022/01/01 09:53:35;;;;;;;7.70;2.83;;;;;;;15.87;58.97;100485.63;4382456;32;35258;-83
2022/01/01 09:56:05;;;;;;;6.87;3.62;;;;;;;15.73;57.96;100476.56;4382317;32;33943;-82
2022/01/01 09:58:34;;;;;;;5.28;3.12;;;;;;;15.42;59.00;100476.53;4382345;32;34310;-82
2022/01/01 10:01:04;;;;;;;6.65;2.65;;;;;;;15.35;59.33;100478.50;4394425;32;34544;-84
2022/01/01 10:03:40;;;;;;;6.72;2.70;;;;;;;15.38;59.20;100476.12;4382136;32;32946;-84
2022/01/01 10:06:08;;;;;;;;;;;;;;;14.94;59.15;100477.00;4369896;32;33539;-84
2022/01/01 10:08:36;;;;;;;7.55;3.53;;;;;;;14.68;60.75;100483.44;4394837;32;33268;-84
2022/01/01 10:11:05;;;;;;;7.62;4.00;;;;;;;14.60;60.79;100491.13;4382054;32;33953;-83
2022/01/01 10:13:36;;;;;;;6.87;3.60;;;;;;;14.99;59.84;100490.12;4394465;32;35741;-84
2022/01/01 10:16:06;;;;;;;9.35;5.10;;;;;;;14.98;59.90;100485.69;4394377;32;33749;-78
2022/01/01 10:18:43;;;;;;;6.20;3.12;;;;;;;15.19;62.09;100482.62;4380439;32;33583;-79
2022/01/01 10:21:15;;;;;;;7.65;2.60;;;;;;;15.20;61.27;100477.94;4381446;32;32952;-73
2022/01/01 10:23:45;;;;;;;6.37;2.85;;;;;;;14.96;60.01;100499.72;4394544;32;34489;-74
2022/01/01 10:29:15;;;;;;;5.95;2.67;;;;;;;14.25;61.59;100482.25;4383894;32;31994;-81
2022/01/01 10:32:06;;;;;;;5.47;2.55;;;;;;;14.50;60.59;100481.37;4394694;32;33369;-80
2022/01/01 10:34:45;;;;;;;4.53;2.33;;;;;;;13.99;62.52;100491.37;4395313;32;34954;-81
2022/01/01 10:37:33;;;;;;;5.45;2.28;;;;;;;14.21;62.11;100480.97;4408145;32;34182;-81
2022/01/01 10:40:01;;;;;;;5.07;2.60;;;;;;;14.07;62.55;100492.00;4394588;32;33319;-81
2022/01/01 10:42:29;;;;;;;20.42;10.70;;;;;;;14.09;62.48;100492.62;4382155;32;33538;-81
2022/01/01 10:44:57;;;;;;;16.73;9.40;;;;;;;14.46;61.14;100499.44;4369796;32;32985;-80
2022/01/01 10:47:33;;;;;;;9.50;5.10;;;;;;;14.47;61.14;100503.88;4369786;32;32809;-79
2022/01/01 10:52:45;;;;;;;6.45;2.90;;;;;;;14.47;61.90;100505.81;4364621;32;33036;-83
2022/01/01 10:55:19;;;;;;;5.25;2.35;;;;;;;14.52;60.51;100508.78;4364298;32;33569;-80
2022/01/01 10:57:58;;;;;;;4.32;2.30;;;;;;;14.52;61.39;100510.69;4364259;32;33981;-84
2022/01/01 11:00:27;;;;;;;4.60;2.40;;;;;;;14.64;61.06;100504.28;4377377;32;33631;-85
2022/01/01 11:02:57;;;;;;;6.30;2.22;;;;;;;14.61;60.32;100504.72;4377245;32;33565;-86
2022/01/01 11:05:32;;;;;;;6.22;2.55;;;;;;;14.77;59.90;100493.22;4375623;32;35398;-82
2022/01/01 11:08:02;;;;;;;6.95;3.00;;;;;;;14.90;59.41;100495.09;4367460;32;34045;-84
2022/01/01 11:10:33;;;;;;;5.15;2.20;;;;;;;15.54;60.49;100504.38;4362516;32;33468;-84
2022/01/01 11:13:02;;;;;;;4.78;2.20;;;;;;;15.34;57.63;100504.47;4351659;32;34541;-85
2022/01/01 11:15:30;;;;;;;5.32;2.42;;;;;;;15.24;58.59;100498.56;4351421;32;35366;-85
2022/01/01 11:17:59;;;;;;;6.70;2.37;;;;;;;15.44;58.39;100507.59;4352001;32;34899;-84
2022/01/01 11:20:33;;;;;;;9.20;5.00;;;;;;;15.31;58.45;100508.50;4362597;32;34370;-84
2022/01/01 11:23:08;;;;;;;5.80;3.15;;;;;;;14.79;60.02;100498.53;4346495;32;33059;-85
2022/01/01 11:25:40;;;;;;;9.63;5.22;;;;;;;15.20;58.81;100500.91;4357991;32;34696;-83
2022/01/01 11:28:11;;;;;;;5.40;2.67;;;;;;;15.34;58.62;100498.94;4351894;32;33982;-84
2022/01/01 11:30:49;;;;;;;9.57;4.55;;;;;;;15.39;58.68;100508.25;4347424;32;32972;-84
2022/01/01 11:33:19;;;;;;;7.75;3.75;;;;;;;14.99;59.28;100509.50;4350504;32;33887;-85
2022/01/01 11:35:53;;;;;;;5.65;3.20;;;;;;;14.82;60.06;100496.16;4351329;32;32873;-84
2022/01/01 11:38:20;;;;;;;8.13;4.20;;;;;;;15.35;58.80;100493.19;4384130;32;34007;-80
2022/01/01 11:41:04;;;;;;;7.65;3.28;;;;;;;14.93;59.40;100496.56;4370814;32;33818;-81
2022/01/01 11:43:46;;;;;;;5.82;2.67;;;;;;;14.99;59.75;100490.97;4367937;32;34088;-84
2022/01/01 11:46:20;;;;;;;5.72;2.83;;;;;;;15.20;59.25;100495.38;4364360;32;34489;-84